PWSweather.com
Personal Weather Stations
Station Observations
133525
French Quarters West Seneca , West Seneca, NY 14224

French Quarters West Seneca West Seneca, NY 14224

Lat: 42.850058, Lon: -78.799754

Elevation: 603

Station Type: Davis Vantage Vue pro2

http://westsenecaweather.com/

High Low Average
Temperature 53.0°F11.7°C 36.0°F2.2°C 43.5°F6.4°C
Dew Point 45.9°F7.7°C 23.6°F-4.7°C 31.7°F-0.2°C
Winds 16.1 mph 25.9 kmh Calm Calm 6.0 mph S9.7 kmh S
Wind Gusts 32.2 mph51.8 kmh -- 11.0 mph17.7 kmh
Humidity 88% 36% 65%
Pressure 30.16 in1021.3 mb 29.59 in1002.0 mb -
Precipitation 0.09 in2.3 mm - -
Hour Temp Dew Point Humidity Winds Wind Gusts Pressure Precip Precip Rate Daily Precip Total
12:00 AM 44.0°F6.7°C 38.5°F3.6°C 81% 13.8 mph SE22.2 kmh SE 21.9 mph35.2 kmh 29.59 in1002.0 mb - 0.00 in0.0 mm 0.04 in1.0 mm
12:10 AM 44.8°F7.1°C 39.3°F4.1°C 81% 13.8 mph SSE22.2 kmh SSE 19.6 mph31.5 kmh 29.61 in1002.7 mb - 0.00 in0.0 mm 0.04 in1.0 mm
12:20 AM 43.6°F6.4°C 39.4°F4.1°C 85% 13.8 mph S22.2 kmh S 19.6 mph31.5 kmh 29.59 in1002.0 mb - 0.01 in0.3 mm 0.05 in1.3 mm
12:30 AM 43.3°F6.3°C 39.4°F4.1°C 86% 11.5 mph SE18.5 kmh SE 23.0 mph37.0 kmh 29.60 in1002.4 mb - 0.01 in0.3 mm 0.06 in1.5 mm
12:40 AM 43.7°F6.5°C 40.1°F4.5°C 87% 13.8 mph S22.2 kmh S 35.7 mph57.5 kmh 29.61 in1002.7 mb - 0.02 in0.5 mm 0.07 in1.8 mm
12:50 AM 43.4°F6.3°C 39.8°F4.3°C 87% 12.7 mph S20.4 kmh S 28.8 mph46.3 kmh 29.61 in1002.7 mb - 0.01 in0.3 mm 0.07 in1.8 mm
01:00 AM 44.0°F6.7°C 40.1°F4.5°C 86% 12.7 mph SSE20.4 kmh SSE 23.0 mph37.0 kmh 29.61 in1002.7 mb - 0.01 in0.3 mm 0.06 in1.5 mm
01:10 AM 43.8°F6.6°C 40.5°F4.7°C 88% 15.0 mph SSE24.1 kmh SSE 21.9 mph35.2 kmh 29.61 in1002.7 mb - 0.01 in0.3 mm 0.01 in0.3 mm
01:20 AM 44.5°F6.9°C 40.5°F4.7°C 86% 11.5 mph SSE18.5 kmh SSE 15.0 mph24.1 kmh 29.59 in1002.0 mb - 0.00 in0.0 mm 0.01 in0.3 mm
01:30 AM 44.6°F7.0°C 40.7°F4.8°C 86% 10.4 mph SSE16.7 kmh SSE 13.8 mph22.2 kmh 29.59 in1002.0 mb - 0.00 in0.0 mm 0.01 in0.3 mm
01:40 AM 44.6°F7.0°C 40.4°F4.7°C 85% 11.5 mph SE18.5 kmh SE 12.7 mph20.4 kmh 29.59 in1002.0 mb - 0.00 in0.0 mm 0.01 in0.3 mm
01:50 AM 44.8°F7.1°C 40.6°F4.8°C 85% 9.2 mph SSE14.8 kmh SSE 16.1 mph25.9 kmh 29.59 in1002.0 mb - 0.00 in0.0 mm 0.01 in0.3 mm
02:00 AM 45.2°F7.3°C 40.7°F4.8°C 84% 16.1 mph SSE25.9 kmh SSE 26.5 mph42.6 kmh 29.59 in1002.0 mb - 0.00 in0.0 mm 0.01 in0.3 mm
02:10 AM 45.6°F7.6°C 41.0°F5.0°C 84% 15.0 mph S24.1 kmh S 20.7 mph33.3 kmh 29.59 in1002.0 mb - 0.00 in0.0 mm 0.01 in0.3 mm
02:20 AM 45.5°F7.5°C 41.9°F5.5°C 87% 13.8 mph SSW22.2 kmh SSW 21.9 mph35.2 kmh 29.64 in1003.7 mb - 0.04 in1.0 mm 0.05 in1.3 mm
02:30 AM 42.9°F6.1°C 39.0°F3.9°C 86% 12.7 mph SW20.4 kmh SW 17.3 mph27.8 kmh 29.69 in1005.4 mb - 0.01 in0.3 mm 0.05 in1.3 mm
02:40 AM 41.3°F5.2°C 37.4°F3.0°C 86% 15.0 mph SSW24.1 kmh SSW 26.5 mph42.6 kmh 29.70 in1005.8 mb - 0.00 in0.0 mm 0.05 in1.3 mm
02:50 AM 40.6°F4.8°C 36.2°F2.3°C 84% 12.7 mph S20.4 kmh S 32.2 mph51.8 kmh 29.73 in1006.8 mb - 0.00 in0.0 mm 0.05 in1.3 mm
03:00 AM 40.0°F4.4°C 35.5°F1.9°C 84% 11.5 mph SW18.5 kmh SW 25.3 mph40.7 kmh 29.74 in1007.1 mb - 0.00 in0.0 mm 0.05 in1.3 mm
03:10 AM 39.4°F4.1°C 35.0°F1.7°C 84% 12.7 mph SW20.4 kmh SW 29.9 mph48.1 kmh 29.77 in1008.1 mb - 0.00 in0.0 mm 0.05 in1.3 mm
03:20 AM 39.2°F4.0°C 34.5°F1.4°C 83% 13.8 mph SSW22.2 kmh SSW 23.0 mph37.0 kmh 29.79 in1008.8 mb - 0.00 in0.0 mm 0.05 in1.3 mm
03:30 AM 38.8°F3.8°C 34.1°F1.2°C 83% 8.1 mph SW13.0 kmh SW 20.7 mph33.3 kmh 29.80 in1009.1 mb - 0.00 in0.0 mm 0.05 in1.3 mm
03:40 AM 38.4°F3.6°C 34.0°F1.1°C 84% 9.2 mph SW14.8 kmh SW 19.6 mph31.5 kmh 29.81 in1009.5 mb - 0.00 in0.0 mm 0.05 in1.3 mm
03:50 AM 38.2°F3.4°C 33.8°F1.0°C 84% 10.4 mph SSW16.7 kmh SSW 18.4 mph29.6 kmh 29.83 in1010.2 mb - 0.00 in0.0 mm 0.05 in1.3 mm
04:00 AM 37.9°F3.3°C 33.5°F0.8°C 84% 6.9 mph SW11.1 kmh SW 18.4 mph29.6 kmh 29.84 in1010.5 mb - 0.00 in0.0 mm 0.05 in1.3 mm
04:10 AM 37.8°F3.2°C 33.4°F0.8°C 84% 8.1 mph SW13.0 kmh SW 16.1 mph25.9 kmh 29.86 in1011.2 mb - 0.00 in0.0 mm 0.05 in1.3 mm
04:20 AM 37.9°F3.3°C 33.5°F0.8°C 84% 11.5 mph SSW18.5 kmh SSW 23.0 mph37.0 kmh 29.88 in1011.9 mb - 0.00 in0.0 mm 0.05 in1.3 mm
04:30 AM 37.7°F3.2°C 33.6°F0.9°C 85% 9.2 mph SW14.8 kmh SW 26.5 mph42.6 kmh 29.89 in1012.2 mb - 0.00 in0.0 mm 0.05 in1.3 mm
04:40 AM 37.7°F3.2°C 33.3°F0.7°C 84% 11.5 mph SSW18.5 kmh SSW 15.0 mph24.1 kmh 29.89 in1012.2 mb - 0.00 in0.0 mm 0.05 in1.3 mm
04:50 AM 37.4°F3.0°C 33.0°F0.6°C 84% 6.9 mph SW11.1 kmh SW 17.3 mph27.8 kmh 29.89 in1012.2 mb - 0.00 in0.0 mm 0.05 in1.3 mm
05:00 AM 37.2°F2.9°C 32.8°F0.4°C 84% 8.1 mph SW13.0 kmh SW 13.8 mph22.2 kmh 29.89 in1012.2 mb - 0.00 in0.0 mm 0.05 in1.3 mm
05:10 AM 37.1°F2.8°C 32.7°F0.4°C 84% 5.8 mph SW9.3 kmh SW 21.9 mph35.2 kmh 29.91 in1012.9 mb - 0.00 in0.0 mm 0.05 in1.3 mm
05:20 AM 37.0°F2.8°C 32.6°F0.3°C 84% 9.2 mph SSW14.8 kmh SSW 21.9 mph35.2 kmh 29.92 in1013.2 mb - 0.00 in0.0 mm 0.05 in1.3 mm
05:30 AM 37.0°F2.8°C 32.3°F0.2°C 83% 9.2 mph SW14.8 kmh SW 18.4 mph29.6 kmh 29.93 in1013.5 mb - 0.00 in0.0 mm 0.05 in1.3 mm
05:40 AM 36.9°F2.7°C 32.2°F0.1°C 83% 10.4 mph SSW16.7 kmh SSW 19.6 mph31.5 kmh 29.94 in1013.9 mb - 0.00 in0.0 mm 0.05 in1.3 mm
05:50 AM 36.8°F2.7°C 31.8°F-0.1°C 82% 8.1 mph SW13.0 kmh SW 11.5 mph18.5 kmh 29.95 in1014.2 mb - 0.00 in0.0 mm 0.05 in1.3 mm
06:00 AM 36.7°F2.6°C 31.7°F-0.2°C 82% 8.1 mph SW13.0 kmh SW 16.1 mph25.9 kmh 29.96 in1014.6 mb - 0.00 in0.0 mm 0.05 in1.3 mm
06:10 AM 36.6°F2.6°C 31.6°F-0.2°C 82% 9.2 mph SW14.8 kmh SW 20.7 mph33.3 kmh 29.97 in1014.9 mb - 0.00 in0.0 mm 0.05 in1.3 mm
06:20 AM 36.4°F2.4°C 31.4°F-0.3°C 82% 10.4 mph SW16.7 kmh SW 13.8 mph22.2 kmh 29.97 in1014.9 mb - 0.00 in0.0 mm 0.05 in1.3 mm
06:30 AM 36.4°F2.4°C 31.4°F-0.3°C 82% 5.8 mph SW9.3 kmh SW 12.7 mph20.4 kmh 29.99 in1015.6 mb - 0.00 in0.0 mm 0.05 in1.3 mm
06:40 AM 36.3°F2.4°C 31.6°F-0.2°C 83% 8.1 mph SW13.0 kmh SW 16.1 mph25.9 kmh 30.00 in1015.9 mb - 0.00 in0.0 mm 0.05 in1.3 mm
06:50 AM 36.4°F2.4°C 31.4°F-0.3°C 82% 5.8 mph SW9.3 kmh SW 12.7 mph20.4 kmh 30.01 in1016.3 mb - 0.00 in0.0 mm 0.05 in1.3 mm
07:00 AM 36.2°F2.3°C 30.9°F-0.6°C 81% 10.4 mph SW16.7 kmh SW 17.3 mph27.8 kmh 30.02 in1016.6 mb - 0.00 in0.0 mm 0.05 in1.3 mm
07:10 AM 36.1°F2.3°C 31.1°F-0.5°C 82% 8.1 mph SSW13.0 kmh SSW 19.6 mph31.5 kmh 30.02 in1016.6 mb - 0.00 in0.0 mm 0.05 in1.3 mm
07:20 AM 36.2°F2.3°C 30.7°F-0.7°C 80% 10.4 mph SW16.7 kmh SW 18.4 mph29.6 kmh 30.03 in1016.9 mb - 0.00 in0.0 mm 0.05 in1.3 mm
07:30 AM 36.1°F2.3°C 30.5°F-0.8°C 80% 6.9 mph SW11.1 kmh SW 12.7 mph20.4 kmh 30.03 in1016.9 mb - 0.00 in0.0 mm 0.05 in1.3 mm
07:40 AM 36.1°F2.3°C 30.2°F-1.0°C 79% 8.1 mph S13.0 kmh S 13.8 mph22.2 kmh 30.03 in1016.9 mb - 0.00 in0.0 mm 0.05 in1.3 mm
07:50 AM 36.3°F2.4°C 29.8°F-1.2°C 77% 9.2 mph SW14.8 kmh SW 15.0 mph24.1 kmh 30.04 in1017.3 mb - 0.00 in0.0 mm 0.05 in1.3 mm
08:00 AM 36.2°F2.3°C 29.7°F-1.3°C 77% 6.9 mph WSW11.1 kmh WSW 9.2 mph14.8 kmh 30.05 in1017.6 mb - 0.00 in0.0 mm 0.05 in1.3 mm
08:10 AM 36.0°F2.2°C 29.8°F-1.2°C 78% 4.6 mph S7.4 kmh S 11.5 mph18.5 kmh 30.07 in1018.3 mb - 0.00 in0.0 mm 0.05 in1.3 mm
08:20 AM 36.0°F2.2°C 29.8°F-1.2°C 78% 5.8 mph SW9.3 kmh SW 8.1 mph13.0 kmh 30.07 in1018.3 mb - 0.00 in0.0 mm 0.05 in1.3 mm
08:30 AM 36.1°F2.3°C 29.9°F-1.2°C 78% 5.8 mph SW9.3 kmh SW 11.5 mph18.5 kmh 30.08 in1018.6 mb - 0.00 in0.0 mm 0.05 in1.3 mm
08:40 AM 36.0°F2.2°C 29.8°F-1.2°C 78% 5.8 mph SW9.3 kmh SW 11.5 mph18.5 kmh 30.09 in1019.0 mb - 0.00 in0.0 mm 0.05 in1.3 mm
08:50 AM 36.2°F2.3°C 29.4°F-1.4°C 76% 6.9 mph SW11.1 kmh SW 11.5 mph18.5 kmh 30.10 in1019.3 mb - 0.00 in0.0 mm 0.05 in1.3 mm
09:00 AM 36.4°F2.4°C 28.9°F-1.7°C 74% 5.8 mph SW9.3 kmh SW 15.0 mph24.1 kmh 30.11 in1019.6 mb - 0.00 in0.0 mm 0.05 in1.3 mm
09:10 AM 36.7°F2.6°C 28.9°F-1.7°C 73% 5.8 mph SSW9.3 kmh SSW 9.2 mph14.8 kmh 30.11 in1019.6 mb - 0.00 in0.0 mm 0.05 in1.3 mm
09:20 AM 36.7°F2.6°C 28.9°F-1.7°C 73% 4.6 mph SSW7.4 kmh SSW 10.4 mph16.7 kmh 30.12 in1020.0 mb - 0.00 in0.0 mm 0.05 in1.3 mm
09:30 AM 36.9°F2.7°C 28.7°F-1.8°C 72% 4.6 mph SW7.4 kmh SW 9.2 mph14.8 kmh 30.13 in1020.3 mb - 0.00 in0.0 mm 0.05 in1.3 mm
09:40 AM 37.1°F2.8°C 28.6°F-1.9°C 71% 4.6 mph SW7.4 kmh SW 6.9 mph11.1 kmh 30.14 in1020.7 mb - 0.00 in0.0 mm 0.05 in1.3 mm
09:50 AM 37.5°F3.1°C 28.6°F-1.9°C 70% 5.8 mph S9.3 kmh S 10.4 mph16.7 kmh 30.14 in1020.7 mb - 0.00 in0.0 mm 0.05 in1.3 mm
10:00 AM 37.9°F3.3°C 27.9°F-2.3°C 67% 6.9 mph SSW11.1 kmh SSW 9.2 mph14.8 kmh 30.14 in1020.7 mb - 0.00 in0.0 mm 0.05 in1.3 mm
10:10 AM 38.3°F3.5°C 27.9°F-2.3°C 66% 3.5 mph SSW5.6 kmh SSW 12.7 mph20.4 kmh 30.15 in1021.0 mb - 0.00 in0.0 mm 0.05 in1.3 mm
10:20 AM 38.7°F3.7°C 27.5°F-2.5°C 64% 3.5 mph SW5.6 kmh SW 12.7 mph20.4 kmh 30.15 in1021.0 mb - 0.00 in0.0 mm 0.05 in1.3 mm
10:30 AM 39.2°F4.0°C 26.9°F-2.8°C 61% 4.6 mph S7.4 kmh S 6.9 mph11.1 kmh 30.15 in1021.0 mb - 0.00 in0.0 mm 0.05 in1.3 mm
10:40 AM 39.8°F4.3°C 26.6°F-3.0°C 59% 5.8 mph SSW9.3 kmh SSW 16.1 mph25.9 kmh 30.15 in1021.0 mb - 0.00 in0.0 mm 0.05 in1.3 mm
10:50 AM 40.4°F4.7°C 26.8°F-2.9°C 58% 6.9 mph S11.1 kmh S 11.5 mph18.5 kmh 30.16 in1021.3 mb - 0.00 in0.0 mm 0.05 in1.3 mm
11:00 AM 40.5°F4.7°C 26.4°F-3.1°C 57% 8.1 mph SSW13.0 kmh SSW 11.5 mph18.5 kmh 30.15 in1021.0 mb - 0.00 in0.0 mm 0.05 in1.3 mm
11:10 AM 40.9°F4.9°C 26.8°F-2.9°C 57% 5.8 mph S9.3 kmh S 9.2 mph14.8 kmh 30.15 in1021.0 mb - 0.00 in0.0 mm 0.05 in1.3 mm
11:20 AM 41.5°F5.3°C 26.5°F-3.1°C 55% 5.8 mph S9.3 kmh S 11.5 mph18.5 kmh 30.15 in1021.0 mb - 0.00 in0.0 mm 0.05 in1.3 mm
11:30 AM 42.0°F5.6°C 27.0°F-2.8°C 55% 9.2 mph S14.8 kmh S 12.7 mph20.4 kmh 30.15 in1021.0 mb - 0.00 in0.0 mm 0.05 in1.3 mm
11:40 AM 42.3°F5.7°C 26.8°F-2.9°C 54% 5.8 mph SSW9.3 kmh SSW 6.9 mph11.1 kmh 30.16 in1021.3 mb - 0.00 in0.0 mm 0.05 in1.3 mm
11:50 AM 42.4°F5.8°C 27.0°F-2.8°C 54% 3.5 mph SW5.6 kmh SW 6.9 mph11.1 kmh 30.15 in1021.0 mb - 0.00 in0.0 mm 0.05 in1.3 mm
12:00 PM 42.7°F5.9°C 27.2°F-2.7°C 54% 5.8 mph S9.3 kmh S 10.4 mph16.7 kmh 30.16 in1021.3 mb - 0.00 in0.0 mm 0.05 in1.3 mm
12:10 PM 43.0°F6.1°C 27.9°F-2.3°C 55% 4.6 mph S7.4 kmh S 6.9 mph11.1 kmh 30.14 in1020.7 mb - 0.00 in0.0 mm 0.05 in1.3 mm
12:20 PM 42.5°F5.8°C 27.0°F-2.8°C 54% 6.9 mph S11.1 kmh S 10.4 mph16.7 kmh 30.14 in1020.7 mb - 0.00 in0.0 mm 0.05 in1.3 mm
12:30 PM 42.4°F5.8°C 28.2°F-2.1°C 57% 3.5 mph SSW5.6 kmh SSW 6.9 mph11.1 kmh 30.13 in1020.3 mb - 0.00 in0.0 mm 0.05 in1.3 mm
12:40 PM 42.5°F5.8°C 28.8°F-1.8°C 58% 2.3 mph S3.7 kmh S 4.6 mph7.4 kmh 30.13 in1020.3 mb - 0.00 in0.0 mm 0.05 in1.3 mm
12:50 PM 43.0°F6.1°C 28.8°F-1.8°C 57% 4.6 mph SSW7.4 kmh SSW 9.2 mph14.8 kmh 30.13 in1020.3 mb - 0.00 in0.0 mm 0.05 in1.3 mm
01:00 PM 43.4°F6.3°C 28.3°F-2.1°C 55% 6.9 mph SSE11.1 kmh SSE 9.2 mph14.8 kmh 30.11 in1019.6 mb - 0.00 in0.0 mm 0.05 in1.3 mm
01:10 PM 44.0°F6.7°C 28.4°F-2.0°C 54% 6.9 mph SSE11.1 kmh SSE 10.4 mph16.7 kmh 30.10 in1019.3 mb - 0.00 in0.0 mm 0.05 in1.3 mm
01:20 PM 44.9°F7.2°C 28.4°F-2.0°C 52% 6.9 mph S11.1 kmh S 9.2 mph14.8 kmh 30.10 in1019.3 mb - 0.00 in0.0 mm 0.05 in1.3 mm
01:30 PM 45.2°F7.3°C 27.6°F-2.4°C 50% 5.8 mph S9.3 kmh S 9.2 mph14.8 kmh 30.09 in1019.0 mb - 0.00 in0.0 mm 0.05 in1.3 mm
01:40 PM 45.8°F7.7°C 26.2°F-3.2°C 46% 6.9 mph S11.1 kmh S 12.7 mph20.4 kmh 30.08 in1018.6 mb - 0.00 in0.0 mm 0.05 in1.3 mm
01:50 PM 46.2°F7.9°C 26.0°F-3.3°C 45% 8.1 mph S13.0 kmh S 15.0 mph24.1 kmh 30.08 in1018.6 mb - 0.00 in0.0 mm 0.05 in1.3 mm
02:00 PM 46.8°F8.2°C 25.4°F-3.7°C 43% 6.9 mph SSE11.1 kmh SSE 11.5 mph18.5 kmh 30.07 in1018.3 mb - 0.00 in0.0 mm 0.05 in1.3 mm
02:10 PM 47.4°F8.6°C 25.5°F-3.6°C 42% 6.9 mph S11.1 kmh S 12.7 mph20.4 kmh 30.06 in1017.9 mb - 0.00 in0.0 mm 0.05 in1.3 mm
02:20 PM 47.5°F8.6°C 25.5°F-3.6°C 42% 5.8 mph S9.3 kmh S 9.2 mph14.8 kmh 30.05 in1017.6 mb - 0.00 in0.0 mm 0.05 in1.3 mm
02:30 PM 48.0°F8.9°C 25.9°F-3.4°C 42% 5.8 mph S9.3 kmh S 10.4 mph16.7 kmh 30.05 in1017.6 mb - 0.00 in0.0 mm 0.05 in1.3 mm
02:40 PM 48.2°F9.0°C 25.0°F-3.9°C 40% 4.6 mph S7.4 kmh S 9.2 mph14.8 kmh 30.04 in1017.3 mb - 0.00 in0.0 mm 0.05 in1.3 mm
02:50 PM 49.0°F9.4°C 24.5°F-4.2°C 38% 6.9 mph S11.1 kmh S 10.4 mph16.7 kmh 30.04 in1017.3 mb - 0.00 in0.0 mm 0.05 in1.3 mm
03:00 PM 49.2°F9.6°C 24.0°F-4.4°C 37% 5.8 mph SSW9.3 kmh SSW 11.5 mph18.5 kmh 30.03 in1016.9 mb - 0.00 in0.0 mm 0.05 in1.3 mm
03:10 PM 49.5°F9.7°C 23.6°F-4.7°C 36% 6.9 mph S11.1 kmh S 13.8 mph22.2 kmh 30.02 in1016.6 mb - 0.00 in0.0 mm 0.05 in1.3 mm
03:20 PM 49.6°F9.8°C 23.7°F-4.6°C 36% 6.9 mph SSE11.1 kmh SSE 9.2 mph14.8 kmh 30.01 in1016.3 mb - 0.00 in0.0 mm 0.05 in1.3 mm
03:30 PM 49.6°F9.8°C 23.7°F-4.6°C 36% 5.8 mph S9.3 kmh S 8.1 mph13.0 kmh 30.01 in1016.3 mb - 0.00 in0.0 mm 0.05 in1.3 mm
03:40 PM 49.7°F9.8°C 23.8°F-4.6°C 36% 6.9 mph S11.1 kmh S 11.5 mph18.5 kmh 30.00 in1015.9 mb - 0.00 in0.0 mm 0.05 in1.3 mm
03:50 PM 49.9°F9.9°C 24.0°F-4.4°C 36% 6.9 mph SSE11.1 kmh SSE 8.1 mph13.0 kmh 30.00 in1015.9 mb - 0.00 in0.0 mm 0.05 in1.3 mm
04:00 PM 50.1°F10.1°C 24.2°F-4.3°C 36% 4.6 mph S7.4 kmh S 10.4 mph16.7 kmh 30.00 in1015.9 mb - 0.00 in0.0 mm 0.05 in1.3 mm
04:10 PM 50.1°F10.1°C 24.2°F-4.3°C 36% 5.8 mph S9.3 kmh S 10.4 mph16.7 kmh 29.99 in1015.6 mb - 0.00 in0.0 mm 0.05 in1.3 mm
04:20 PM 49.9°F9.9°C 24.0°F-4.4°C 36% 5.8 mph S9.3 kmh S 5.8 mph9.3 kmh 29.99 in1015.6 mb - 0.00 in0.0 mm 0.05 in1.3 mm
04:30 PM 49.8°F9.9°C 24.5°F-4.2°C 37% 4.6 mph S7.4 kmh S 6.9 mph11.1 kmh 29.98 in1015.2 mb - 0.00 in0.0 mm 0.05 in1.3 mm
04:40 PM 49.5°F9.7°C 24.9°F-3.9°C 38% 4.6 mph S7.4 kmh S 5.8 mph9.3 kmh 29.99 in1015.6 mb - 0.00 in0.0 mm 0.05 in1.3 mm
04:50 PM 49.4°F9.7°C 25.4°F-3.7°C 39% 2.3 mph SSE3.7 kmh SSE 3.5 mph5.6 kmh 29.99 in1015.6 mb - 0.00 in0.0 mm 0.05 in1.3 mm
05:00 PM 49.2°F9.6°C 25.9°F-3.4°C 40% 3.5 mph S5.6 kmh S 3.5 mph5.6 kmh 30.00 in1015.9 mb - 0.00 in0.0 mm 0.05 in1.3 mm
05:10 PM 49.3°F9.6°C 26.0°F-3.3°C 40% 3.5 mph S5.6 kmh S 5.8 mph9.3 kmh 29.99 in1015.6 mb - 0.00 in0.0 mm 0.05 in1.3 mm
05:20 PM 49.2°F9.6°C 27.0°F-2.8°C 42% 1.2 mph SW1.9 kmh SW 4.6 mph7.4 kmh 29.99 in1015.6 mb - 0.00 in0.0 mm 0.05 in1.3 mm
05:30 PM 48.8°F9.3°C 27.3°F-2.6°C 43% 1.2 mph SSW1.9 kmh SSW 2.3 mph3.7 kmh 29.98 in1015.2 mb - 0.00 in0.0 mm 0.05 in1.3 mm
05:40 PM 48.6°F9.2°C 27.6°F-2.4°C 44% Calm Calm -- 29.97 in1014.9 mb - 0.00 in0.0 mm 0.05 in1.3 mm
05:50 PM 48.1°F8.9°C 27.8°F-2.3°C 45% Calm Calm -- 29.96 in1014.6 mb - 0.00 in0.0 mm 0.05 in1.3 mm
06:00 PM 47.7°F8.7°C 27.9°F-2.3°C 46% Calm Calm -- 29.95 in1014.2 mb - 0.00 in0.0 mm 0.05 in1.3 mm
06:10 PM 47.0°F8.3°C 28.3°F-2.1°C 48% Calm Calm -- 29.95 in1014.2 mb - 0.00 in0.0 mm 0.05 in1.3 mm
06:20 PM 45.9°F7.7°C 28.3°F-2.1°C 50% Calm Calm -- 29.95 in1014.2 mb - 0.00 in0.0 mm 0.05 in1.3 mm
06:30 PM 44.8°F7.1°C 29.1°F-1.6°C 54% Calm Calm -- 29.95 in1014.2 mb - 0.00 in0.0 mm 0.05 in1.3 mm
06:40 PM 43.8°F6.6°C 29.1°F-1.6°C 56% Calm Calm -- 29.95 in1014.2 mb - 0.00 in0.0 mm 0.05 in1.3 mm
06:50 PM 43.4°F6.3°C 29.2°F-1.6°C 57% Calm Calm -- 29.93 in1013.5 mb - 0.00 in0.0 mm 0.05 in1.3 mm
07:00 PM 43.2°F6.2°C 29.8°F-1.2°C 59% Calm Calm -- 29.93 in1013.5 mb - 0.00 in0.0 mm 0.05 in1.3 mm
07:10 PM 43.3°F6.3°C 30.3°F-0.9°C 60% Calm Calm -- 29.93 in1013.5 mb - 0.00 in0.0 mm 0.05 in1.3 mm
07:20 PM 43.0°F6.1°C 30.9°F-0.6°C 62% Calm Calm -- 29.93 in1013.5 mb - 0.00 in0.0 mm 0.05 in1.3 mm
07:30 PM 42.5°F5.8°C 30.4°F-0.9°C 62% Calm Calm -- 29.93 in1013.5 mb - 0.00 in0.0 mm 0.05 in1.3 mm
07:40 PM 42.3°F5.7°C 30.2°F-1.0°C 62% Calm Calm -- 29.93 in1013.5 mb - 0.00 in0.0 mm 0.05 in1.3 mm
07:50 PM 42.0°F5.6°C 30.7°F-0.7°C 64% Calm Calm -- 29.92 in1013.2 mb - 0.00 in0.0 mm 0.05 in1.3 mm
08:00 PM 41.7°F5.4°C 30.4°F-0.9°C 64% Calm Calm -- 29.92 in1013.2 mb - 0.00 in0.0 mm 0.05 in1.3 mm
08:10 PM 41.6°F5.3°C 30.7°F-0.7°C 65% Calm Calm -- 29.93 in1013.5 mb - 0.00 in0.0 mm 0.05 in1.3 mm
08:20 PM 41.4°F5.2°C 30.9°F-0.6°C 66% Calm Calm 2.3 mph3.7 kmh 29.92 in1013.2 mb - 0.00 in0.0 mm 0.05 in1.3 mm
08:30 PM 41.0°F5.0°C 30.5°F-0.8°C 66% Calm Calm -- 29.92 in1013.2 mb - 0.00 in0.0 mm 0.05 in1.3 mm
08:40 PM 40.4°F4.7°C 30.7°F-0.7°C 68% 1.2 mph SSW1.9 kmh SSW 2.3 mph3.7 kmh 29.91 in1012.9 mb - 0.00 in0.0 mm 0.05 in1.3 mm
09:00 PM 45.5°F7.5°C 35.9°F2.2°C 69% 6.9 mph SE11.1 kmh SE 8.1 mph13.0 kmh 29.90 in1012.5 mb - 0.00 in0.0 mm 0.05 in1.3 mm
09:10 PM 49.2°F9.6°C 36.7°F2.6°C 62% 4.6 mph SSE7.4 kmh SSE 6.9 mph11.1 kmh 29.90 in1012.5 mb - 0.00 in0.0 mm 0.05 in1.3 mm
09:20 PM 50.0°F10.0°C 36.7°F2.6°C 60% 2.3 mph S3.7 kmh S 3.5 mph5.6 kmh 29.90 in1012.5 mb - 0.00 in0.0 mm 0.05 in1.3 mm
09:30 PM 50.3°F10.2°C 37.0°F2.8°C 60% 3.5 mph SE5.6 kmh SE 5.8 mph9.3 kmh 29.89 in1012.2 mb - 0.00 in0.0 mm 0.05 in1.3 mm
09:40 PM 50.0°F10.0°C 36.7°F2.6°C 60% 1.2 mph SSE1.9 kmh SSE 3.5 mph5.6 kmh 29.88 in1011.9 mb - 0.00 in0.0 mm 0.05 in1.3 mm
09:50 PM 49.8°F9.9°C 36.5°F2.5°C 60% Calm Calm -- 29.87 in1011.5 mb - 0.00 in0.0 mm 0.05 in1.3 mm
10:00 PM 49.7°F9.8°C 36.8°F2.7°C 61% 2.3 mph SW3.7 kmh SW 3.5 mph5.6 kmh 29.86 in1011.2 mb - 0.00 in0.0 mm 0.05 in1.3 mm
10:10 PM 50.6°F10.3°C 37.2°F2.9°C 60% 4.6 mph S7.4 kmh S 5.8 mph9.3 kmh 29.86 in1011.2 mb - 0.00 in0.0 mm 0.05 in1.3 mm
10:20 PM 51.1°F10.6°C 37.7°F3.2°C 60% 4.6 mph S7.4 kmh S 8.1 mph13.0 kmh 29.85 in1010.8 mb - 0.00 in0.0 mm 0.05 in1.3 mm
10:30 PM 51.2°F10.7°C 38.2°F3.4°C 61% 4.6 mph SSE7.4 kmh SSE 11.5 mph18.5 kmh 29.84 in1010.5 mb - 0.00 in0.0 mm 0.05 in1.3 mm
10:40 PM 51.3°F10.7°C 38.3°F3.5°C 61% 2.3 mph SSE3.7 kmh SSE 3.5 mph5.6 kmh 29.84 in1010.5 mb - 0.00 in0.0 mm 0.05 in1.3 mm
10:50 PM 51.3°F10.7°C 38.7°F3.7°C 62% 4.6 mph SSE7.4 kmh SSE 5.8 mph9.3 kmh 29.83 in1010.2 mb - 0.00 in0.0 mm 0.05 in1.3 mm
11:00 PM 51.4°F10.8°C 38.8°F3.8°C 62% 3.5 mph SSE5.6 kmh SSE 5.8 mph9.3 kmh 29.81 in1009.5 mb - 0.00 in0.0 mm 0.05 in1.3 mm
11:10 PM 51.6°F10.9°C 39.4°F4.1°C 63% 3.5 mph S5.6 kmh S 9.2 mph14.8 kmh 29.80 in1009.1 mb - 0.00 in0.0 mm 0.05 in1.3 mm
11:20 PM 52.2°F11.2°C 41.2°F5.1°C 66% 6.9 mph S11.1 kmh S 16.1 mph25.9 kmh 29.80 in1009.1 mb - 0.00 in0.0 mm 0.05 in1.3 mm
11:30 PM 52.8°F11.6°C 42.2°F5.7°C 67% 10.4 mph SSE16.7 kmh SSE 13.8 mph22.2 kmh 29.79 in1008.8 mb - 0.00 in0.0 mm 0.05 in1.3 mm
11:40 PM 53.0°F11.7°C 43.1°F6.2°C 69% 10.4 mph SSE16.7 kmh SSE 12.7 mph20.4 kmh 29.79 in1008.8 mb - 0.00 in0.0 mm 0.05 in1.3 mm
11:50 PM 52.6°F11.4°C 43.1°F6.2°C 70% 8.1 mph SE13.0 kmh SE 19.6 mph31.5 kmh 29.78 in1008.5 mb - 0.00 in0.0 mm 0.05 in1.3 mm